Deerhorn Valley (67) Station Data

Red Flag Warning: No
Fire Weather Zone: 250
SDGE Region: Mountain Empire
Lat/Lon: 32.687/-116.762

Observations

Time Wind Speed/Gust Temp(F) RH Fuel Moist Fuel Temp(F) Dewpt(F) Tmax(F) Tmin(F) Accum Precip 10-min Precip SL Press(mb)
2/27 11:40pm 261 12 G 18 47° 96% - - 46° 49° 44.5° - - -
2/27 11:20pm 269 14 G 24 48° 96% - - 47° 49° 44.5° - - -
2/27 11:10pm 241 17 G 26 48° 96% - - 47° 49° 44.5° - - -
2/27 11:00pm 237 13 G 22 48° 96% - - 47° 49° 44.5° - - -
2/27 10:50pm 238 12 G 21 48° 96% - - 47° 49° 44.5° - - -
2/27 10:40pm 247 13 G 23 48° 96% - - 47° 49° 44.5° - - -
2/27 10:30pm 238 8 G 18 48° 96% - - 47° 49° 44.5° - - -
2/27 10:10pm 220 8 G 14 48° 96% - - 47° 49° 44.5° - - -
2/27 10:00pm 207 8 G 16 48° 96% - - 47° 49° 44.5° - - -
2/27 9:50pm 194 8 G 16 48° 96% - - 47° 49° 44.5° - - -
2/27 9:30pm 191 8 G 17 48° 96% - - 47° 49° 44.5° - - -
2/27 9:10pm 187 10 G 19 48° 96% - - 47° 49° 44.5° - - -
2/27 9:00pm 188 10 G 17 48° 96% - - 47° 49° 44.5° - - -
2/27 8:50pm 195 7 G 14 47° 96% - - 46° 49° 44.5° - - -
2/27 8:40pm 218 8 G 13 47° 96% - - 46° 49° 44.5° - - -
2/27 8:30pm 208 8 G 16 47° 96% - - 46° 49° 44.5° - - -
2/27 8:20pm 196 10 G 21 47° 96% - - 46° 49° 44.5° - - -
2/27 8:10pm 194 10 G 19 47° 96% - - 46° 49° 44.5° - - -
2/27 8:00pm 189 13 G 24 47° 96% - - 46° 49° 44.5° - - -
2/27 7:50pm 182 11 G 23 47° 96% - - 46° 49° 44.5° - - -
2/27 7:40pm 193 13 G 25 47° 96% - - 46° 49° 44.5° - - -
2/27 7:30pm 191 13 G 25 47° 96% - - 46° 49° 44.5° - - -
2/27 7:20pm 190 12 G 24 47° 96% - - 46° 49° 44.5° - - -
2/27 7:10pm 162 10 G 21 47° 96% - - 46° 49° 44.5° - - -
2/27 7:00pm 150 12 G 20 47° 96% - - 46° 49° 44.5° - - -
2/27 6:50pm 152 7 G 13 47° 96% - - 46° 49° 44.5° - - -
2/27 6:40pm 164 5 G 9 47° 96% - - 46° 49° 44.5° - - -
2/27 6:30pm 153 6 G 12 47° 96% - - 46° 49° 44.5° - - -
2/27 5:50pm 183 6 G 13 47° 96% - - 46° 49° 44.5° - - -
2/27 5:40pm 191 8 G 19 47° 96% - - 46° 49° 44.5° - - -
2/27 5:30pm 181 8 G 13 47° 96% - - 46° 49° 44.5° - - -
2/27 5:20pm 187 10 G 16 47° 96% - - 46° 49° 44.5° - - -
2/27 5:10pm 186 11 G 23 48° 96% - - 47° 49° 44.5° - - -
2/27 5:00pm 184 9 G 17 48° 96% - - 47° 49° 44.5° - - -
2/27 4:50pm 189 9 G 19 48° 96% - - 47° 49° 44.5° - - -
2/27 4:40pm 192 11 G 20 48° 96% - - 47° 49° 44.5° - - -
2/27 4:30pm 183 11 G 19 48° 96% - - 47° 49° 44.5° - - -
2/27 4:20pm 189 11 G 23 48° 96% - - 47° 49° 44.5° - - -
2/27 4:10pm 182 9 G 16 48° 96% - - 47° 49° 44.5° - - -
2/27 4:00pm 185 10 G 26 48° 96% - - 47° 49° 44.5° - - -
2/27 3:50pm 187 9 G 19 48° 96% - - 47° 49° 44.5° - - -
2/27 3:40pm 194 8 G 14 48° 96% - - 47° 49° 44.5° - - -
2/27 3:30pm 187 10 G 17 48° 96% - - 47° 49° 44.5° - - -
2/27 3:20pm 187 9 G 16 48° 96% - - 47° 49° 44.5° - - -
2/27 3:10pm 198 8 G 16 48° 96% - - 47° 49° 44.5° - - -
2/27 3:00pm 213 6 G 11 48° 96% - - 47° 49° 44.5° - - -
2/27 2:50pm 202 8 G 13 48° 96% - - 47° 49° 44.5° - - -
2/27 2:40pm 190 9 G 15 48° 96% - - 47° 49° 44.5° - - -
2/27 2:30pm 199 8 G 17 48° 96% - - 47° 49° 44.5° - - -
2/27 2:20pm 211 8 G 16 48° 96% - - 47° 49° 44.5° - - -
2/27 2:10pm 214 7 G 13 48° 96% - - 47° 49° 44.5° - - -
2/27 2:00pm 225 8 G 11 48° 96% - - 47° 49° 44.5° - - -
2/27 1:50pm 200 9 G 17 48° 96% - - 47° 49° 44.5° - - -
2/27 1:40pm 189 11 G 19 48° 96% - - 47° 49° 44.5° - - -
2/27 1:30pm 187 14 G 23 48° 96% - - 47° 49° 44.5° - - -
2/27 1:20pm 203 12 G 22 49° 96% - - 48° 49° 44.5° - - -
2/27 1:10pm 201 8 G 17 49° 96% - - 48° 49° 44.5° - - -
2/27 1:00pm 201 9 G 16 48° 96% - - 47° 49° 44.5° - - -
2/27 12:50pm 200 13 G 24 48° 96% - - 47° 49° 44.5° - - -
2/27 12:40pm 200 12 G 25 48° 96% - - 47° 49° 44.5° - - -
2/27 12:30pm 213 9 G 21 48° 96% - - 47° 49° 44.5° - - -
2/27 12:20pm 216 10 G 22 48° 96% - - 47° 49° 44.5° - - -
2/27 12:10pm 197 11 G 23 48° 96% - - 47° 49° 44.5° - - -
2/27 12:00pm 196 13 G 22 48° 96% - - 47° 49° 44.5° - - -
2/27 11:50am 189 11 G 18 48° 96% - - 47° 49° 44.5° - - -
2/27 11:40am 196 11 G 21 48° 96% - - 47° 49° 44.5° - - -
2/27 11:30am 200 10 G 19 48° 96% - - 47° 49° 44.5° - - -
2/27 11:20am 186 9 G 16 48° 96% - - 47° 49° 44.5° - - -
2/27 11:10am 190 9 G 15 48° 96% - - 47° 49° 44.5° - - -
2/27 11:00am 207 7 G 15 49° 96% - - 48° 49° 44.5° - - -
2/27 10:50am 206 8 G 18 49° 96% - - 47° 49° 44.5° - - -
2/27 10:40am 201 7 G 14 49° 96% - - 48° 49° 44.5° - - -
2/27 10:30am 210 8 G 13 49° 96% - - 48° 49° 44.5° - - -
2/27 10:20am 238 10 G 20 49° 96% - - 48° 49° 44.5° - - -
2/27 10:10am 212 6 G 13 49° 96% - - 48° 49° 44.5° - - -
2/27 10:00am 205 7 G 20 49° 96% - - 48° 49° 44.5° - - -
2/27 9:50am 196 6 G 11 49° 96% - - 48° 49° 44.5° - - -
2/27 9:40am 196 6 G 10 49° 96% - - 48° 49° 44.5° - - -
2/27 9:30am 227 7 G 12 49° 96% - - 48° 49° 44.5° - - -
2/27 9:20am 204 8 G 18 49° 96% - - 48° 49° 44.5° - - -
2/27 9:10am 206 11 G 27 49° 96% - - 48° 49° 44.5° - - -
2/27 9:00am 165 8 G 18 49° 96% - - 48° 49° 44.5° - - -
2/27 8:50am 179 8 G 16 49° 96% - - 48° 49° 44.5° - - -
2/27 8:40am 182 10 G 18 49° 96% - - 48° 49° 44.5° - - -
2/27 8:30am 189 10 G 20 49° 96% - - 48° 49° 44.5° - - -
2/27 8:20am 185 11 G 18 49° 96% - - 48° 49° 44.5° - - -
2/27 8:10am 185 7 G 12 49° 96% - - 48° 49° 44.5° - - -
2/27 8:00am 196 6 G 10 49° 96% - - 48° 49° 44.5° - - -
2/27 7:50am 190 7 G 12 49° 96% - - 48° 49° 44.5° - - -
2/27 7:40am 201 8 G 15 49° 96% - - 48° 49° 44.5° - - -
2/27 7:30am 180 6 G 14 49° 96% - - 48° 49° 44.5° - - -
2/27 7:20am 179 5 G 9 49° 96% - - 48° 49° 44.5° - - -
2/27 7:10am 195 6 G 10 49° 96% - - 48° 49° 44.5° - - -
2/27 7:00am 196 5 G 11 49° 96% - - 48° 49° 44.5° - - -
2/27 6:50am 216 4 G 9 49° 96% - - 48° 49° 44.5° - - -
2/27 6:40am 210 5 G 10 49° 96% - - 48° 49° 44.5° - - -
2/27 6:30am 196 7 G 12 49° 96% - - 48° 49° 44.5° - - -
2/27 6:20am 191 9 G 15 49° 96% - - 48° 48.9° 44.5° - - -
2/27 6:10am 191 9 G 18 49° 96% - - 48° 48.9° 44.5° - - -
2/27 6:00am 191 8 G 15 49° 96% - - 48° 48.9° 44.5° - - -
2/27 5:50am 189 10 G 17 49° 96% - - 48° 48.9° 44.5° - - -
2/27 5:40am 190 11 G 20 49° 96% - - 48° 48.9° 44.5° - - -
2/27 5:30am 187 12 G 23 49° 96% - - 48° 48.9° 44.5° - - -
2/27 5:20am 186 11 G 22 49° 96% - - 48° 48.9° 44.5° - - -
2/27 5:10am 193 9 G 17 49° 96% - - 47° 48.8° 44.5° - - -
2/27 5:00am 187 10 G 20 49° 96% - - 47° 48.7° 44.5° - - -
2/27 4:50am 189 10 G 18 48° 96% - - 47° 48.7° 44.5° - - -
2/27 4:40am 184 10 G 20 48° 96% - - 47° 48.7° 44.5° - - -
2/27 4:30am 187 11 G 20 48° 96% - - 47° 48.7° 44.5° - - -
2/27 4:20am 186 10 G 18 48° 96% - - 47° 48.6° 44.5° - - -
2/27 4:10am 187 10 G 18 48° 96% - - 47° 48.4° 44.5° - - -
2/27 4:00am 189 9 G 17 48° 96% - - 47° 48.3° 44.5° - - -
2/27 3:50am 186 10 G 21 48° 96% - - 47° 48.3° 44.5° - - -
2/27 3:40am 190 8 G 18 48° 96% - - 47° 48.2° 44.5° - - -
2/27 3:30am 180 9 G 15 48° 96% - - 47° 48.1° 44.5° - - -
2/27 3:20am 193 9 G 16 48° 96% - - 47° 48° 44.5° - - -
2/27 3:10am 184 9 G 14 48° 96% - - 47° 48° 44.5° - - -
2/27 3:00am 186 7 G 19 48° 96% - - 47° 47.9° 44.5° - - -
2/27 2:50am 181 6 G 13 48° 96% - - 47° 47.8° 44.5° - - -
2/27 2:40am 130 1 G 5 47° 96% - - 46° 47.7° 44.5° - - -
2/27 2:30am 163 3 G 10 47° 96% - - 46° 47.5° 44.5° - - -
2/27 2:20am 180 6 G 13 47° 96% - - 46° 47.5° 44.5° - - -
2/27 2:10am 199 5 G 11 47° 96% - - 46° 47.3° 44.5° - - -
2/27 2:00am 181 6 G 12 47° 96% - - 46° 47.2° 44.5° - - -
2/27 1:50am 158 2 G 6 47° 96% - - 46° 47.1° 44.5° - - -
2/27 1:40am 176 2 G 5 47° 96% - - 46° 46.9° 44.5° - - -
2/27 1:30am 151 1 G 3 46° 96% - - 45° 46.7° 44.5° - - -
2/27 1:20am 119 0 G 2 46° 96% - - 45° 46.5° 44.5° - - -
2/27 1:10am 131 1 G 3 46° 96% - - 45° 46.5° 44.5° - - -
2/27 1:00am 170 2 G 5 46° 96% - - 45° 46.5° 44.5° - - -
2/27 12:50am 203 3 G 5 46° 96% - - 45° 46.3° 44.5° - - -
2/27 12:40am 173 2 G 5 46° 96% - - 45° 46.2° 44.5° - - -
2/27 12:30am 224 1 G 3 46° 96% - - 45° 46° 44.5° - - -
2/27 12:20am 201 2 G 4 45° 96% - - 44° 45.7° 44.5° - - -
2/27 12:10am 188 2 G 5 45° 96% - - 44° 45.4° 44.5° - - -
2/27 12:00am 108 1 G 3 45° 96% - - 44° 48.9° 40.1° - - -
2/26 11:50pm 98 1 G 2 45° 96% - - 43° 48.9° 40.1° - - -
2/26 11:40pm 134 1 G 2 45° 96% - - 44° 48.9° 40.1° - - -
2/26 11:30pm 274 2 G 4 45° 96% - - 44° 48.9° 40.1° - - -
2/26 11:20pm 267 2 G 3 44° 96% - - 43° 48.9° 40.1° - - -
2/26 11:10pm 267 2 G 3 44° 96% - - 43° 48.9° 40.1° - - -
2/26 11:00pm 261 1 G 2 44° 96% - - 43° 48.9° 40.1° - - -
2/26 10:50pm 261 2 G 3 44° 96% - - 43° 48.9° 40.1° - - -
2/26 10:40pm 254 2 G 2 44° 96% - - 43° 48.9° 40.1° - - -
2/26 10:30pm 254 2 G 6 44° 96% - - 43° 48.9° 40.1° - - -
2/26 10:20pm 248 4 G 6 44° 96% - - 43° 48.9° 40.1° - - -
2/26 10:10pm 284 2 G 3 44° 96% - - 43° 48.9° 40.1° - - -
2/26 10:00pm 322 1 G 2 44° 96% - - 43° 48.9° 40.1° - - -
2/26 9:50pm 235 0 G 1 44° 96% - - 43° 48.9° 40.1° - - -
2/26 9:40pm 240 1 G 3 44° 96% - - 43° 48.9° 40.1° - - -
2/26 9:30pm 251 4 G 6 44° 96% - - 43° 48.9° 40.1° - - -
2/26 9:20pm 268 4 G 6 44° 96% - - 43° 48.9° 40.1° - - -
2/26 9:10pm 272 5 G 8 43° 96% - - 42° 48.9° 40.1° - - -
2/26 9:00pm 267 4 G 7 44° 96% - - 42° 48.9° 40.1° - - -
2/26 8:50pm 265 6 G 9 43° 96% - - 42° 48.9° 40.1° - - -
2/26 8:40pm 265 7 G 10 44° 96% - - 42° 48.9° 40.1° - - -
2/26 8:30pm 256 7 G 12 44° 96% - - 43° 48.9° 40.1° - - -
2/26 8:20pm 247 11 G 16 44° 96% - - 43° 48.9° 40.1° - - -
2/26 8:10pm 250 10 G 16 44° 96% - - 43° 48.9° 40.1° - - -
2/26 8:00pm 251 9 G 13 44° 95% - - 43° 48.9° 40.1° - - -
2/26 7:50pm 261 7 G 11 44° 95% - - 43° 48.9° 40.1° - - -
2/26 7:40pm 261 8 G 12 44° 95% - - 43° 48.9° 40.1° - - -
2/26 7:30pm 258 8 G 12 44° 95% - - 43° 48.9° 40.1° - - -
2/26 7:20pm 263 6 G 10 44° 95% - - 43° 48.9° 40.1° - - -
2/26 7:10pm 253 7 G 13 44° 95% - - 43° 48.9° 40.1° - - -
2/26 7:00pm 257 9 G 15 45° 94% - - 43° 48.9° 40.1° - - -
2/26 6:50pm 261 7 G 13 45° 94% - - 43° 48.9° 40.1° - - -
2/26 6:40pm 263 7 G 11 45° 93% - - 43° 48.9° 40.1° - - -
2/26 6:30pm 247 7 G 11 45° 91% - - 42° 48.9° 40.1° - - -
2/26 6:20pm 253 10 G 16 45° 90% - - 42° 48.9° 40.1° - - -
2/26 6:10pm 253 8 G 14 45° 90% - - 42° 48.9° 40.1° - - -
2/26 6:00pm 255 7 G 10 45° 89% - - 42° 48.9° 40.1° - - -
2/26 5:50pm 251 8 G 12 45° 89% - - 42° 48.9° 40.1° - - -
2/26 5:40pm 246 9 G 12 46° 87% - - 42° 48.9° 40.1° - - -
2/26 5:30pm 249 9 G 14 46° 86% - - 42° 48.9° 40.1° - - -
2/26 5:20pm 250 11 G 17 46° 85% - - 41° 48.9° 40.1° - - -
2/26 5:10pm 249 9 G 16 46° 83% - - 41° 48.9° 40.1° - - -
2/26 5:00pm 243 11 G 17 47° 80% - - 41° 48.9° 40.1° - - -